createdAt,value
2023-05-19T00:01:25.006Z,12.21
2023-05-19T00:03:54.715Z,12.21
2023-05-19T00:06:33.599Z,12.18
2023-05-19T00:09:07.226Z,12.19
2023-05-19T00:11:39.232Z,12.18
2023-05-19T00:14:08.788Z,12.13
2023-05-19T00:16:37.938Z,12.07
2023-05-19T00:19:06.547Z,12.10
2023-05-19T00:21:33.493Z,12.06
2023-05-19T00:24:00.605Z,12.08
2023-05-19T00:26:29.146Z,12.05
2023-05-19T00:29:03.344Z,12.05
2023-05-19T00:31:31.628Z,12.05
2023-05-19T00:34:02.052Z,12.00
2023-05-19T00:36:28.942Z,12.01
2023-05-19T00:38:56.499Z,11.97
2023-05-19T00:41:23.761Z,11.91
2023-05-19T00:43:54.344Z,11.92
2023-05-19T00:46:21.489Z,11.93
2023-05-19T00:48:48.739Z,11.95
2023-05-19T00:51:17.268Z,11.93
2023-05-19T00:53:49.147Z,11.93
2023-05-19T00:56:18.753Z,11.84
2023-05-19T00:58:46.076Z,11.78
2023-05-19T01:01:14.629Z,11.76
2023-05-19T01:03:44.491Z,11.76
2023-05-19T01:06:12.269Z,11.69
2023-05-19T01:08:39.532Z,11.66
2023-05-19T01:11:07.594Z,11.65
2023-05-19T01:13:36.729Z,11.64
2023-05-19T01:19:30.748Z,11.63
2023-05-19T01:22:13.106Z,11.64
2023-05-19T01:24:45.034Z,11.59
2023-05-19T01:27:21.029Z,11.60
2023-05-19T01:29:56.975Z,11.56
2023-05-19T01:32:24.541Z,11.52
2023-05-19T01:34:53.786Z,11.60
2023-05-19T01:37:21.831Z,11.61
2023-05-19T01:39:50.437Z,11.63
2023-05-19T01:42:18.018Z,11.64
2023-05-19T01:44:46.408Z,11.63
2023-05-19T01:47:14.400Z,11.64
2023-05-19T01:49:41.674Z,11.67
2023-05-19T01:52:08.843Z,11.65
2023-05-19T01:54:35.925Z,11.64
2023-05-19T01:57:32.886Z,11.66
2023-05-19T02:00:21.466Z,11.65
2023-05-19T02:03:00.907Z,11.64
2023-05-19T02:06:20.523Z,11.61
2023-05-19T02:08:57.221Z,11.61
2023-05-19T02:11:35.799Z,11.59
2023-05-19T02:14:27.270Z,11.61
2023-05-19T02:16:57.329Z,11.56
2023-05-19T02:19:32.858Z,11.59
2023-05-19T02:22:00.148Z,11.62
2023-05-19T02:24:28.285Z,11.64
2023-05-19T02:26:55.652Z,11.65
2023-05-19T02:29:22.862Z,11.62
2023-05-19T02:31:53.058Z,11.60
2023-05-19T02:34:20.068Z,11.62
2023-05-19T02:36:50.226Z,11.62
2023-05-19T02:39:17.117Z,11.60
2023-05-19T02:41:44.419Z,11.58
2023-05-19T02:44:11.214Z,11.55
2023-05-19T02:46:41.262Z,11.56
2023-05-19T02:49:08.665Z,11.53
2023-05-19T02:51:35.827Z,11.53
2023-05-19T02:54:02.739Z,11.55
2023-05-19T02:56:32.541Z,11.51
2023-05-19T02:58:59.385Z,11.49
2023-05-19T03:01:26.559Z,11.46
2023-05-19T03:03:53.487Z,11.46
2023-05-19T03:06:23.371Z,11.49
2023-05-19T03:08:50.937Z,11.49
2023-05-19T03:11:18.078Z,11.48
2023-05-19T03:13:44.921Z,11.52
2023-05-19T03:16:12.661Z,11.53
2023-05-19T03:18:39.602Z,11.48
2023-05-19T03:21:09.341Z,11.51
2023-05-19T03:23:36.385Z,11.48
2023-05-19T03:26:03.518Z,11.50
2023-05-19T03:28:31.739Z,11.53
2023-05-19T03:31:01.438Z,11.56
2023-05-19T03:33:29.911Z,11.59
2023-05-19T03:35:57.766Z,11.60
2023-05-19T03:38:27.476Z,11.64
2023-05-19T03:40:57.129Z,11.64
2023-05-19T03:43:23.922Z,11.67
2023-05-19T03:45:51.116Z,11.75
2023-05-19T03:48:19.742Z,11.78
2023-05-19T03:50:48.672Z,11.86
2023-05-19T03:53:15.769Z,11.86
2023-05-19T03:55:44.497Z,11.89
2023-05-19T03:58:16.989Z,12.00
2023-05-19T04:00:46.950Z,12.03
2023-05-19T04:03:14.180Z,12.05
2023-05-19T04:05:41.445Z,12.11
2023-05-19T04:08:10.974Z,12.18
2023-05-19T04:10:38.041Z,12.24
2023-05-19T04:13:04.816Z,12.28
2023-05-19T04:15:32.962Z,12.30
2023-05-19T04:17:59.872Z,12.35
2023-05-19T04:20:26.994Z,12.40
2023-05-19T04:22:54.104Z,12.43
2023-05-19T04:25:21.227Z,12.45
2023-05-19T04:27:48.898Z,12.46
2023-05-19T04:30:22.450Z,12.44
2023-05-19T04:32:50.993Z,12.57
2023-05-19T04:35:19.595Z,12.63
2023-05-19T04:37:46.909Z,12.70
2023-05-19T04:40:15.949Z,12.79
2023-05-19T04:42:46.096Z,12.85
2023-05-19T04:45:14.154Z,12.90
2023-05-19T04:47:44.461Z,13.00
2023-05-19T04:50:11.686Z,13.06
2023-05-19T04:52:38.496Z,13.21
2023-05-19T04:55:07.024Z,13.35
2023-05-19T04:57:34.169Z,13.43
2023-05-19T05:00:01.332Z,13.58
2023-05-19T05:02:28.291Z,13.73
2023-05-19T05:04:56.759Z,13.81
2023-05-19T05:07:23.879Z,13.91
2023-05-19T05:09:51.126Z,13.95
2023-05-19T05:12:18.914Z,13.93
2023-05-19T05:14:46.413Z,13.94
2023-05-19T05:17:13.861Z,13.95
2023-05-19T05:19:41.335Z,13.98
2023-05-19T05:22:08.980Z,13.98
2023-05-19T05:24:36.487Z,13.97
2023-05-19T05:27:04.502Z,14.06
2023-05-19T05:29:31.634Z,13.97
2023-05-19T05:31:58.532Z,14.02
2023-05-19T05:34:26.081Z,14.13
2023-05-19T05:36:55.930Z,14.26
2023-05-19T05:39:23.098Z,14.41
2023-05-19T05:41:49.905Z,14.40
2023-05-19T05:44:17.046Z,14.42
2023-05-19T05:46:45.199Z,14.33
2023-05-19T05:49:20.507Z,14.41
2023-05-19T05:52:01.558Z,14.43
2023-05-19T05:54:35.630Z,14.44
2023-05-19T05:57:03.446Z,14.46
2023-05-19T05:59:30.955Z,14.49
2023-05-19T06:01:57.833Z,14.48
2023-05-19T06:04:25.914Z,14.55
2023-05-19T06:06:52.736Z,14.62
2023-05-19T06:09:19.880Z,14.74
2023-05-19T06:11:49.811Z,14.81
2023-05-19T06:14:19.519Z,14.92
2023-05-19T06:16:48.099Z,15.01
2023-05-19T06:19:15.418Z,15.10
2023-05-19T06:21:43.269Z,15.11
2023-05-19T06:24:11.778Z,15.16
2023-05-19T06:26:38.861Z,15.30
2023-05-19T06:29:05.912Z,15.25
2023-05-19T06:31:35.680Z,15.25
2023-05-19T06:34:06.003Z,15.33
2023-05-19T06:36:35.816Z,15.29
2023-05-19T06:39:03.043Z,15.40
2023-05-19T06:41:29.909Z,15.47
2023-05-19T06:43:57.053Z,15.43
2023-05-19T06:46:24.119Z,15.55
2023-05-19T06:48:51.595Z,15.69
2023-05-19T06:51:21.815Z,15.83
2023-05-19T06:53:51.765Z,15.94
2023-05-19T06:56:19.140Z,16.00
2023-05-19T06:58:46.352Z,16.13
2023-05-19T07:01:13.232Z,16.13
2023-05-19T07:03:40.462Z,16.25
2023-05-19T07:06:08.498Z,16.28
2023-05-19T07:08:37.228Z,16.33
2023-05-19T07:11:04.354Z,16.31
2023-05-19T07:13:32.962Z,16.26
2023-05-19T07:15:59.927Z,16.41
2023-05-19T07:18:27.076Z,16.58
2023-05-19T07:20:53.950Z,16.79
2023-05-19T07:23:23.838Z,17.06
2023-05-19T07:25:56.112Z,17.40
2023-05-19T07:28:23.390Z,17.41
2023-05-19T07:30:50.717Z,17.33
2023-05-19T07:33:19.927Z,17.43
2023-05-19T07:35:47.156Z,17.55
2023-05-19T07:38:16.464Z,17.44
2023-05-19T07:40:43.261Z,17.54
2023-05-19T07:43:11.396Z,17.54
2023-05-19T07:45:38.690Z,17.38
2023-05-19T07:48:07.057Z,17.49
2023-05-19T07:50:34.084Z,17.70
2023-05-19T07:53:01.360Z,17.85
2023-05-19T07:55:28.189Z,18.16
2023-05-19T07:57:56.198Z,18.32
2023-05-19T08:00:23.205Z,18.42
2023-05-19T08:02:51.723Z,18.51
2023-05-19T08:05:18.962Z,18.73
2023-05-19T08:07:46.041Z,18.90
2023-05-19T08:10:16.146Z,19.12
2023-05-19T08:12:44.202Z,19.29
2023-05-19T08:15:13.870Z,19.42
2023-05-19T08:17:41.048Z,19.47
2023-05-19T08:20:10.354Z,19.51
2023-05-19T08:22:37.496Z,19.64
2023-05-19T08:25:05.569Z,19.55
2023-05-19T08:27:33.012Z,19.52
2023-05-19T08:29:59.925Z,19.37
2023-05-19T08:32:27.205Z,19.32
2023-05-19T08:34:54.083Z,19.16
2023-05-19T08:37:21.204Z,19.13
2023-05-19T08:39:47.980Z,19.42
2023-05-19T08:42:15.208Z,19.69
2023-05-19T08:44:44.043Z,19.75
2023-05-19T08:47:14.533Z,19.67
2023-05-19T08:49:46.464Z,19.76
2023-05-19T08:52:30.920Z,19.57
2023-05-19T08:55:06.239Z,19.44
2023-05-19T08:57:34.204Z,19.25
2023-05-19T09:00:02.435Z,18.95
2023-05-19T09:02:29.817Z,18.67
2023-05-19T09:04:57.773Z,19.21
2023-05-19T09:07:31.178Z,19.53
2023-05-19T09:09:58.093Z,19.95
2023-05-19T09:12:25.540Z,20.13
2023-05-19T09:14:53.877Z,20.49
2023-05-19T09:17:21.417Z,20.25
2023-05-19T09:19:49.321Z,20.38
2023-05-19T09:22:19.211Z,20.27
2023-05-19T09:24:47.647Z,20.29
2023-05-19T09:27:24.872Z,20.06
2023-05-19T09:29:51.652Z,19.92
2023-05-19T09:32:28.933Z,20.02
2023-05-19T09:34:56.061Z,20.64
2023-05-19T09:37:24.781Z,20.73
2023-05-19T09:39:52.960Z,20.34
2023-05-19T09:42:30.172Z,20.22
2023-05-19T09:45:01.974Z,20.65
2023-05-19T09:47:38.357Z,21.00
2023-05-19T09:50:08.588Z,21.51
2023-05-19T09:52:39.713Z,21.93
2023-05-19T09:55:10.529Z,22.35
2023-05-19T09:57:38.373Z,22.76
2023-05-19T10:00:17.184Z,22.65
2023-05-19T10:02:46.794Z,22.91
2023-05-19T10:05:17.149Z,22.98
2023-05-19T10:07:45.868Z,22.85
2023-05-19T10:10:17.083Z,23.06
2023-05-19T10:12:44.541Z,23.11
2023-05-19T10:15:23.148Z,22.76
2023-05-19T10:17:51.382Z,22.86
2023-05-19T10:20:18.892Z,22.48
2023-05-19T10:22:46.788Z,22.52
2023-05-19T10:25:18.705Z,22.93
2023-05-19T10:28:17.175Z,23.14
2023-05-19T10:30:53.254Z,23.12
2023-05-19T10:33:24.591Z,23.19
2023-05-19T10:36:02.703Z,23.31
2023-05-19T10:38:53.460Z,23.98
2023-05-19T10:41:55.804Z,24.23
2023-05-19T10:44:33.149Z,23.99
2023-05-19T10:47:00.038Z,23.84
2023-05-19T10:49:27.362Z,23.34
2023-05-19T10:51:57.511Z,22.50
2023-05-19T10:54:43.829Z,22.35
2023-05-19T10:57:15.362Z,22.29
2023-05-19T10:59:45.377Z,22.12
2023-05-19T11:02:47.552Z,22.87
2023-05-19T11:05:18.286Z,23.57
2023-05-19T11:07:56.787Z,23.55
2023-05-19T11:10:25.794Z,23.42
2023-05-19T11:12:52.746Z,23.19
2023-05-19T11:15:27.825Z,22.93
2023-05-19T11:17:57.601Z,23.02
2023-05-19T11:20:25.211Z,22.55
2023-05-19T11:23:04.298Z,23.10
2023-05-19T11:25:53.532Z,23.97
2023-05-19T11:28:26.734Z,24.75
2023-05-19T11:30:55.227Z,25.03
2023-05-19T11:33:27.138Z,24.92
2023-05-19T11:35:59.509Z,24.35
2023-05-19T11:38:30.156Z,24.63
2023-05-19T11:40:57.629Z,24.93
2023-05-19T11:43:25.852Z,25.23
2023-05-19T11:45:56.422Z,25.65
2023-05-19T11:48:26.373Z,25.76
2023-05-19T11:50:53.729Z,25.72
2023-05-19T11:53:21.186Z,25.91
2023-05-19T11:55:49.393Z,25.37
2023-05-19T11:58:17.314Z,25.33
2023-05-19T12:00:47.715Z,25.16
2023-05-19T12:03:22.130Z,25.73
2023-05-19T12:05:49.813Z,26.14
2023-05-19T12:08:19.316Z,26.29
2023-05-19T12:10:52.242Z,26.28
2023-05-19T12:13:19.691Z,26.13
2023-05-19T12:15:46.986Z,25.00
2023-05-19T12:18:14.324Z,25.37
2023-05-19T12:20:41.664Z,25.51
2023-05-19T12:23:09.051Z,25.79
2023-05-19T12:25:36.352Z,25.69
2023-05-19T12:28:03.840Z,25.52
2023-05-19T12:30:32.894Z,25.55
2023-05-19T12:33:01.503Z,26.35
2023-05-19T12:35:32.150Z,26.59
2023-05-19T12:38:03.772Z,26.34
2023-05-19T12:40:31.166Z,26.02
2023-05-19T12:42:59.525Z,26.10
2023-05-19T12:45:28.951Z,26.17
2023-05-19T12:47:56.665Z,26.67
2023-05-19T12:50:31.159Z,26.95
2023-05-19T12:52:59.946Z,27.13
2023-05-19T12:55:27.151Z,27.02
2023-05-19T12:57:57.150Z,26.55
2023-05-19T13:00:28.236Z,25.92
2023-05-19T13:02:59.746Z,25.64
2023-05-19T13:05:28.336Z,25.88
2023-05-19T13:07:59.028Z,26.26
2023-05-19T13:10:29.475Z,26.88
2023-05-19T13:12:57.287Z,26.89
2023-05-19T13:15:26.383Z,26.27
2023-05-19T13:17:54.528Z,25.94
2023-05-19T13:20:22.063Z,26.45
2023-05-19T13:22:49.461Z,26.65
2023-05-19T13:25:20.141Z,26.77
2023-05-19T13:27:48.205Z,26.64
2023-05-19T13:30:16.233Z,25.76
2023-05-19T13:32:43.075Z,25.16
2023-05-19T13:35:11.099Z,24.28
2023-05-19T13:37:39.493Z,24.48
2023-05-19T13:40:07.474Z,25.20
2023-05-19T13:42:35.150Z,25.88
2023-05-19T13:45:02.805Z,26.43
2023-05-19T13:47:30.041Z,26.84
2023-05-19T13:49:57.634Z,27.19
2023-05-19T13:52:24.659Z,27.73
2023-05-19T13:54:54.490Z,28.11
2023-05-19T13:57:21.430Z,27.89
2023-05-19T14:00:01.873Z,26.54
2023-05-19T14:02:30.156Z,26.14
2023-05-19T14:04:57.819Z,26.12
2023-05-19T14:07:25.740Z,26.46
2023-05-19T14:09:53.162Z,26.61
2023-05-19T14:12:23.167Z,27.36
2023-05-19T14:14:52.446Z,28.00
2023-05-19T14:17:19.230Z,28.04
2023-05-19T14:19:46.343Z,27.32
2023-05-19T14:22:13.469Z,27.24
2023-05-19T14:24:41.599Z,27.05
2023-05-19T14:27:08.461Z,27.03
2023-05-19T14:29:35.691Z,27.39
2023-05-19T14:32:03.444Z,27.51
2023-05-19T14:34:35.277Z,27.67
2023-05-19T14:37:02.750Z,27.64
2023-05-19T14:39:31.364Z,27.98
2023-05-19T14:41:59.682Z,28.50
2023-05-19T14:44:31.951Z,28.53
2023-05-19T14:47:00.853Z,28.23
2023-05-19T14:49:30.502Z,28.92
2023-05-19T14:51:57.293Z,28.80
2023-05-19T14:54:24.441Z,28.78
2023-05-19T14:56:51.421Z,28.93
2023-05-19T14:59:18.567Z,29.07
2023-05-19T15:01:45.576Z,28.91
2023-05-19T15:04:12.939Z,28.44
2023-05-19T15:06:39.844Z,28.22
2023-05-19T15:09:07.006Z,28.78
2023-05-19T15:11:36.860Z,28.25
2023-05-19T15:14:04.399Z,27.37
2023-05-19T15:16:31.285Z,26.59
2023-05-19T15:18:58.387Z,27.02
2023-05-19T15:21:25.180Z,27.28
2023-05-19T15:23:52.310Z,27.57
2023-05-19T15:26:19.183Z,27.44
2023-05-19T15:28:47.311Z,26.74
2023-05-19T15:31:14.177Z,26.40
2023-05-19T15:33:41.427Z,25.67
2023-05-19T15:36:11.238Z,25.27
2023-05-19T15:38:39.350Z,25.11
2023-05-19T15:41:08.992Z,24.82
2023-05-19T15:43:36.147Z,24.53
2023-05-19T15:46:04.924Z,24.44
2023-05-19T15:48:32.442Z,24.29
2023-05-19T15:51:00.620Z,24.17
2023-05-19T15:53:28.080Z,24.02
2023-05-19T15:55:54.988Z,24.13
2023-05-19T15:58:22.117Z,24.18
2023-05-19T16:00:49.141Z,24.01
2023-05-19T16:03:16.319Z,24.15
2023-05-19T16:05:43.246Z,24.22
2023-05-19T16:08:10.430Z,24.14
2023-05-19T16:10:37.288Z,24.02
2023-05-19T16:13:04.779Z,23.87
2023-05-19T16:15:31.651Z,23.81
2023-05-19T16:18:00.257Z,23.74
2023-05-19T16:20:29.675Z,23.69
2023-05-19T16:22:59.077Z,23.60
2023-05-19T16:25:26.101Z,23.55
2023-05-19T16:27:53.241Z,23.45
2023-05-19T16:30:20.271Z,23.38
2023-05-19T16:32:47.429Z,23.39
2023-05-19T16:35:14.611Z,23.47
2023-05-19T16:37:41.741Z,23.64
2023-05-19T16:40:09.068Z,23.53
2023-05-19T16:42:36.269Z,23.37
2023-05-19T16:45:03.242Z,23.24
2023-05-19T16:47:30.465Z,23.18
2023-05-19T16:49:57.420Z,23.11
2023-05-19T16:52:24.681Z,23.12
2023-05-19T16:54:53.557Z,22.99
2023-05-19T16:57:21.082Z,22.82
2023-05-19T16:59:49.560Z,22.71
2023-05-19T17:02:16.821Z,22.59
2023-05-19T17:04:45.331Z,22.43
2023-05-19T17:07:16.386Z,22.35
2023-05-19T17:09:43.982Z,22.26
2023-05-19T17:12:11.291Z,22.17
2023-05-19T17:14:38.221Z,22.08
2023-05-19T17:17:05.528Z,22.04
2023-05-19T17:19:35.792Z,21.93
2023-05-19T17:22:03.910Z,21.85
2023-05-19T17:24:33.191Z,21.72
2023-05-19T17:27:00.940Z,21.59
2023-05-19T17:29:28.010Z,21.44
2023-05-19T17:31:55.522Z,21.36
2023-05-19T17:34:22.433Z,21.27
2023-05-19T17:36:51.757Z,21.18
2023-05-19T17:39:21.657Z,21.03
2023-05-19T17:41:48.830Z,20.91
2023-05-19T17:44:15.761Z,20.80
2023-05-19T17:46:42.900Z,20.63
2023-05-19T17:49:10.840Z,20.52
2023-05-19T17:51:41.296Z,20.36
2023-05-19T17:54:08.423Z,20.28
2023-05-19T17:56:41.571Z,20.14
2023-05-19T17:59:08.850Z,20.07
2023-05-19T18:01:36.247Z,19.97
2023-05-19T18:04:03.739Z,19.80
2023-05-19T18:06:32.260Z,19.72
2023-05-19T18:09:02.130Z,19.58
2023-05-19T18:11:29.345Z,19.46
2023-05-19T18:13:57.292Z,19.39
2023-05-19T18:16:25.662Z,19.18
2023-05-19T18:18:53.002Z,19.09
2023-05-19T18:21:20.201Z,18.97
2023-05-19T18:23:50.982Z,18.89
2023-05-19T18:26:18.189Z,18.79
2023-05-19T18:28:45.081Z,18.56
2023-05-19T18:31:19.004Z,18.50
2023-05-19T18:33:49.592Z,18.44
2023-05-19T18:36:16.890Z,18.37
2023-05-19T18:38:43.788Z,18.28
2023-05-19T18:41:10.962Z,18.22
2023-05-19T18:43:38.793Z,18.11
2023-05-19T18:46:06.235Z,17.93
2023-05-19T18:48:33.329Z,17.87
2023-05-19T18:51:00.599Z,17.81
2023-05-19T18:53:27.489Z,17.77
2023-05-19T18:55:54.619Z,17.71
2023-05-19T18:58:21.648Z,17.61
2023-05-19T19:00:58.046Z,17.48
2023-05-19T19:03:28.634Z,17.37
2023-05-19T19:05:57.184Z,17.33
2023-05-19T19:08:25.182Z,17.26
2023-05-19T19:10:59.161Z,17.07
2023-05-19T19:13:26.053Z,17.06
2023-05-19T19:15:53.303Z,17.03
2023-05-19T19:18:20.265Z,17.04
2023-05-19T19:20:47.452Z,16.95
2023-05-19T19:23:14.314Z,16.83
2023-05-19T19:25:41.561Z,16.81
2023-05-19T19:28:08.418Z,16.80
2023-05-19T19:30:36.025Z,16.79
2023-05-19T19:33:04.623Z,16.76
2023-05-19T19:35:32.510Z,16.77
2023-05-19T19:37:59.371Z,16.77
2023-05-19T19:40:26.711Z,16.82
2023-05-19T19:42:53.591Z,16.70
2023-05-19T19:45:23.390Z,16.68
2023-05-19T19:47:51.821Z,16.79
2023-05-19T19:50:18.988Z,16.75
2023-05-19T19:52:45.954Z,16.71
2023-05-19T19:55:13.133Z,16.65
2023-05-19T19:57:39.969Z,16.63
2023-05-19T20:00:08.069Z,16.64
2023-05-19T20:02:41.014Z,16.68
2023-05-19T20:05:17.310Z,16.68
2023-05-19T20:07:44.168Z,16.72
2023-05-19T20:10:11.467Z,16.64
2023-05-19T20:12:38.340Z,16.64
2023-05-19T20:15:07.321Z,16.67
2023-05-19T20:17:34.181Z,16.71
2023-05-19T20:20:04.717Z,16.73
2023-05-19T20:22:31.556Z,16.75
2023-05-19T20:24:59.058Z,16.71
2023-05-19T20:27:25.905Z,16.68
2023-05-19T20:29:53.030Z,16.73
2023-05-19T20:32:19.903Z,16.74
2023-05-19T20:34:47.009Z,16.75
2023-05-19T20:37:13.926Z,16.78
2023-05-19T20:39:41.292Z,16.75
2023-05-19T20:42:11.142Z,16.71
2023-05-19T20:44:38.355Z,16.75
2023-05-19T20:47:08.212Z,16.74
2023-05-19T20:49:35.324Z,16.70
2023-05-19T20:52:02.295Z,16.73
2023-05-19T20:54:29.405Z,16.73
2023-05-19T20:56:56.235Z,16.73
2023-05-19T20:59:23.332Z,16.71
2023-05-19T21:01:50.195Z,16.70
2023-05-19T21:04:17.423Z,16.73
2023-05-19T21:06:44.322Z,16.74
2023-05-19T21:09:11.451Z,16.69
2023-05-19T21:11:38.379Z,16.74
2023-05-19T21:14:07.967Z,16.70
2023-05-19T21:16:38.833Z,16.64
2023-05-19T21:19:06.844Z,16.54
2023-05-19T21:21:34.256Z,16.50
2023-05-19T21:24:01.335Z,16.46
2023-05-19T21:26:28.182Z,16.42
2023-05-19T21:28:55.264Z,16.36
2023-05-19T21:31:22.102Z,16.26
2023-05-19T21:33:52.047Z,16.19
2023-05-19T21:36:18.868Z,16.16
2023-05-19T21:38:49.789Z,16.09
2023-05-19T21:41:16.888Z,16.08
2023-05-19T21:43:45.302Z,16.03
2023-05-19T21:46:12.312Z,16.04
2023-05-19T21:48:39.681Z,15.96
2023-05-19T21:51:06.884Z,15.91
2023-05-19T21:53:34.008Z,15.93
2023-05-19T21:56:01.256Z,15.82
2023-05-19T21:58:28.377Z,15.78
2023-05-19T22:00:56.059Z,15.76
2023-05-19T22:03:23.556Z,15.79
2023-05-19T22:05:51.985Z,15.74
2023-05-19T22:08:20.554Z,15.74
2023-05-19T22:10:53.593Z,15.71
2023-05-19T22:13:20.823Z,15.62
2023-05-19T22:15:47.854Z,15.57
2023-05-19T22:18:15.008Z,15.56
2023-05-19T22:20:45.664Z,15.55
2023-05-19T22:23:12.941Z,15.52
2023-05-19T22:25:39.806Z,15.53
2023-05-19T22:28:08.122Z,15.51
2023-05-19T22:30:39.304Z,15.47
2023-05-19T22:33:08.797Z,15.45
2023-05-19T22:35:35.696Z,15.42
2023-05-19T22:38:02.813Z,15.43
2023-05-19T22:40:29.740Z,15.34
2023-05-19T22:42:59.465Z,15.36
2023-05-19T22:45:29.115Z,15.35
2023-05-19T22:47:59.270Z,15.35
2023-05-19T22:50:26.689Z,15.37
2023-05-19T22:52:53.896Z,15.37
2023-05-19T22:55:21.101Z,15.32
2023-05-19T22:57:48.304Z,15.25
2023-05-19T23:00:18.971Z,15.22
2023-05-19T23:02:46.531Z,15.20
2023-05-19T23:05:13.418Z,15.21
2023-05-19T23:07:40.609Z,15.21
2023-05-19T23:10:07.801Z,15.22
2023-05-19T23:12:35.126Z,15.20
2023-05-19T23:15:04.956Z,15.14
2023-05-19T23:17:32.128Z,15.05
2023-05-19T23:20:02.579Z,15.00
2023-05-19T23:22:29.742Z,14.98
2023-05-19T23:24:56.636Z,15.02
2023-05-19T23:27:24.153Z,15.00
2023-05-19T23:29:51.468Z,15.00
2023-05-19T23:32:18.876Z,14.99
2023-05-19T23:34:47.451Z,14.96
2023-05-19T23:37:16.614Z,14.92
2023-05-19T23:39:43.502Z,14.85
2023-05-19T23:42:10.730Z,14.84
2023-05-19T23:44:37.636Z,14.75
2023-05-19T23:47:05.023Z,14.69
2023-05-19T23:49:31.926Z,14.66
2023-05-19T23:51:59.170Z,14.65
2023-05-19T23:54:26.663Z,14.68
2023-05-19T23:57:01.491Z,14.64
2023-05-19T23:59:28.272Z,14.63
